Time;durP1;ratioP1;P1;durP2;ratioP2;P2;SDS_P1;SDS_P2;PMS_P1;PMS_P2;Temp;Humidity;BMP_temperature;BMP_pressure;BME280_temperature;BME280_humidity;BME280_pressure;Samples;Min_cycle;Max_cycle;Signal;HPM_P1;HPM_P2
2023/03/22 00:01:19;;;;;;;13.33;12.03;;;9.80;99.90;;;;;;4981353;28;20576;-78
2023/03/22 00:03:49;;;;;;;13.07;11.77;;;9.80;99.90;;;;;;4987410;28;20497;-79
2023/03/22 00:06:18;;;;;;;14.87;12.50;;;9.80;99.90;;;;;;4981104;28;20481;-78
2023/03/22 00:08:50;;;;;;;13.33;12.03;;;9.80;99.90;;;;;;4980256;28;20469;-77
2023/03/22 00:11:19;;;;;;;13.03;11.73;;;9.80;99.90;;;;;;4991365;28;20478;-77
2023/03/22 00:13:47;;;;;;;12.63;11.33;;;9.80;99.90;;;;;;4991782;28;20488;-78
2023/03/22 00:16:16;;;;;;;13.03;11.73;;;9.80;99.90;;;;;;4990592;28;20465;-78
2023/03/22 00:18:44;;;;;;;13.40;12.10;;;9.80;99.90;;;;;;4989522;28;20473;-77
2023/03/22 00:21:15;;;;;;;18.10;14.03;;;9.80;99.90;;;;;;4991959;28;20480;-76
2023/03/22 00:23:43;;;;;;;14.70;13.13;;;9.80;99.90;;;;;;4987015;28;21019;-77
2023/03/22 00:26:12;;;;;;;13.33;12.03;;;9.80;99.90;;;;;;4986996;28;20481;-79
2023/03/22 00:28:41;;;;;;;15.43;13.87;;;9.80;99.90;;;;;;4991170;28;21105;-78
2023/03/22 00:31:10;;;;;;;14.90;13.30;;;9.80;99.90;;;;;;4987163;28;20473;-77
2023/03/22 00:33:38;;;;;;;15.53;13.93;;;9.80;99.90;;;;;;4988224;28;20489;-77
2023/03/22 00:36:08;;;;;;;15.27;12.77;;;9.80;99.90;;;;;;4989635;28;20511;-78
2023/03/22 00:38:38;;;;;;;14.43;13.03;;;9.80;99.90;;;;;;4988896;28;20472;-77
2023/03/22 00:41:12;;;;;;;15.40;13.93;;;9.80;99.90;;;;;;4984727;28;20604;-78
2023/03/22 00:43:40;;;;;;;13.70;12.50;;;9.80;99.90;;;;;;4978761;28;20499;-78
2023/03/22 00:46:09;;;;;;;15.13;13.63;;;9.90;99.90;;;;;;4987912;28;20477;-80
2023/03/22 00:48:37;;;;;;;14.70;13.30;;;9.90;99.90;;;;;;4990769;28;20970;-77
2023/03/22 00:51:06;;;;;;;14.27;12.87;;;9.90;99.90;;;;;;4994622;28;21436;-77
2023/03/22 00:53:35;;;;;;;15.30;13.80;;;9.90;99.90;;;;;;4989571;28;20481;-77
2023/03/22 00:56:06;;;;;;;15.87;14.23;;;9.90;99.90;;;;;;4986362;28;20579;-76
2023/03/22 00:58:34;;;;;;;15.67;14.07;;;9.90;99.90;;;;;;4991059;28;20476;-78
2023/03/22 01:01:02;;;;;;;16.20;14.53;;;9.90;99.90;;;;;;4985575;28;20471;-78
2023/03/22 01:03:30;;;;;;;15.80;14.20;;;9.90;99.90;;;;;;4988557;28;20484;-78
2023/03/22 01:05:58;;;;;;;15.47;13.97;;;9.90;99.90;;;;;;4987755;28;20576;-78
2023/03/22 01:08:32;;;;;;;14.93;13.53;;;9.90;99.90;;;;;;4989641;28;20484;-78
2023/03/22 01:11:01;;;;;;;15.50;14.00;;;9.90;99.90;;;;;;4987043;28;20480;-77
2023/03/22 01:13:30;;;;;;;16.13;14.53;;;10.00;99.90;;;;;;4984462;28;20489;-78
2023/03/22 01:15:58;;;;;;;16.27;14.67;;;9.90;99.90;;;;;;4986716;28;20496;-78
2023/03/22 01:18:26;;;;;;;16.80;15.10;;;9.90;99.90;;;;;;4994319;28;20476;-78
2023/03/22 01:20:54;;;;;;;17.23;15.47;;;10.00;99.90;;;;;;4995212;28;20571;-77
2023/03/22 01:23:22;;;;;;;16.27;14.57;;;10.00;99.90;;;;;;4992804;28;21219;-79
2023/03/22 01:25:50;;;;;;;16.77;14.80;;;10.00;99.90;;;;;;4996150;28;20970;-79
2023/03/22 01:28:18;;;;;;;16.37;14.67;;;10.00;99.90;;;;;;4994813;28;20990;-78
2023/03/22 01:30:47;;;;;;;18.33;16.20;;;10.00;99.90;;;;;;4990291;28;21008;-78
2023/03/22 01:33:15;;;;;;;17.80;16.10;;;10.00;99.90;;;;;;4989489;28;20507;-79
2023/03/22 01:35:44;;;;;;;17.87;15.00;;;10.00;99.90;;;;;;4992867;28;20496;-80
2023/03/22 01:38:12;;;;;;;17.73;16.03;;;10.00;99.90;;;;;;4994291;28;20491;-79
2023/03/22 01:40:40;;;;;;;18.33;16.60;;;10.00;99.90;;;;;;4991377;28;20503;-78
2023/03/22 01:43:14;;;;;;;18.20;16.30;;;10.00;99.90;;;;;;4991729;28;20489;-78
2023/03/22 01:45:44;;;;;;;18.07;16.30;;;10.00;99.90;;;;;;4995504;28;20476;-77
2023/03/22 01:48:21;;;;;;;18.43;16.27;;;10.00;99.90;;;;;;4989270;28;21190;-78
2023/03/22 01:50:58;;;;;;;19.27;17.30;;;10.00;99.90;;;;;;4992478;28;20492;-78
2023/03/22 01:53:27;;;;;;;18.50;16.60;;;10.10;99.90;;;;;;4982880;28;20588;-79
2023/03/22 01:55:57;;;;;;;18.67;16.93;;;10.10;99.90;;;;;;4987218;28;20489;-77
2023/03/22 01:58:26;;;;;;;18.90;16.87;;;10.10;99.90;;;;;;4988460;28;20484;-75
2023/03/22 02:00:54;;;;;;;18.20;16.30;;;10.10;99.90;;;;;;4980080;28;20501;-76
2023/03/22 02:03:30;;;;;;;18.27;16.47;;;10.10;99.90;;;;;;4981117;28;20516;-76
2023/03/22 02:05:58;;;;;;;17.67;15.70;;;10.10;99.90;;;;;;4983511;28;20492;-76
2023/03/22 02:08:26;;;;;;;17.90;16.30;;;10.10;99.90;;;;;;4991719;28;20504;-76
2023/03/22 02:10:54;;;;;;;17.80;15.30;;;10.10;99.90;;;;;;4990473;28;20492;-79
2023/03/22 02:13:48;;;;;;;18.53;15.60;;;10.20;99.90;;;;;;4982408;28;20499;-77
2023/03/22 02:16:29;;;;;;;16.70;15.10;;;10.10;99.90;;;;;;4978117;28;20489;-77
2023/03/22 02:19:22;;;;;;;17.03;15.33;;;10.10;99.90;;;;;;4985235;28;20503;-78
2023/03/22 02:22:24;;;;;;;18.27;16.50;;;10.10;99.90;;;;;;4981790;28;20477;-77
2023/03/22 02:25:27;;;;;;;17.83;15.97;;;10.10;99.90;;;;;;4965516;28;20580;-79
2023/03/22 02:28:17;;;;;;;18.40;15.20;;;10.10;99.90;;;;;;4979600;28;20472;-75
2023/03/22 02:31:08;;;;;;;17.07;15.40;;;10.10;99.90;;;;;;4985504;28;20523;-76
2023/03/22 02:33:50;;;;;;;17.50;15.70;;;10.10;99.90;;;;;;4965568;28;20560;-77
2023/03/22 02:36:39;;;;;;;17.40;15.60;;;10.10;99.90;;;;;;4965000;28;20529;-79
2023/03/22 02:39:24;;;;;;;17.10;15.40;;;10.20;99.90;;;;;;4965849;28;20589;-78
2023/03/22 02:42:07;;;;;;;16.20;14.57;;;10.20;99.90;;;;;;4966685;28;21023;-77
2023/03/22 02:44:41;;;;;;;17.57;15.77;;;10.20;99.90;;;;;;4971414;28;20512;-78
2023/03/22 02:47:19;;;;;;;17.70;14.90;;;10.20;99.90;;;;;;4967564;28;20469;-77
2023/03/22 02:49:55;;;;;;;16.87;14.87;;;10.20;99.90;;;;;;4972092;28;20504;-78
2023/03/22 02:52:30;;;;;;;16.77;15.07;;;10.20;99.90;;;;;;4973094;28;20494;-79
2023/03/22 02:55:06;;;;;;;16.43;14.83;;;10.20;99.90;;;;;;4967544;28;20477;-77
2023/03/22 02:57:40;;;;;;;16.47;14.77;;;10.20;99.90;;;;;;4965160;28;20473;-75
2023/03/22 03:00:11;;;;;;;17.97;16.17;;;10.20;99.90;;;;;;4968403;28;20492;-77
2023/03/22 03:02:44;;;;;;;15.50;14.00;;;10.20;99.90;;;;;;4970789;28;20490;-79
2023/03/22 03:05:14;;;;;;;16.13;14.63;;;10.30;99.90;;;;;;4973045;28;20481;-77
2023/03/22 03:07:46;;;;;;;14.93;13.60;;;10.20;99.90;;;;;;4972063;28;20478;-78
2023/03/22 03:10:19;;;;;;;16.23;14.60;;;10.20;99.90;;;;;;4968605;28;20498;-78
2023/03/22 03:12:47;;;;;;;16.27;14.57;;;10.20;99.90;;;;;;4964762;28;20490;-77
2023/03/22 03:15:18;;;;;;;14.93;13.43;;;10.20;99.90;;;;;;4966690;28;20477;-76
2023/03/22 03:18:04;;;;;;;17.00;15.30;;;10.20;99.90;;;;;;4968650;28;20501;-79
2023/03/22 03:20:45;;;;;;;16.17;14.57;;;10.20;99.90;;;;;;4971604;28;20493;-77
2023/03/22 03:23:27;;;;;;;15.63;14.03;;;10.20;99.90;;;;;;4970881;28;21061;-78
2023/03/22 03:26:03;;;;;;;14.43;13.03;;;10.20;99.90;;;;;;4971448;28;20473;-77
2023/03/22 03:28:38;;;;;;;16.03;14.43;;;10.30;99.90;;;;;;4970612;28;20904;-77
2023/03/22 03:31:16;;;;;;;14.93;13.60;;;10.30;99.90;;;;;;4966646;28;20474;-79
2023/03/22 03:33:48;;;;;;;14.33;12.93;;;10.30;99.90;;;;;;4967227;28;20525;-79
2023/03/22 03:36:18;;;;;;;15.40;13.87;;;10.30;99.90;;;;;;4966764;28;20494;-77
2023/03/22 03:38:50;;;;;;;14.70;13.23;;;10.30;99.90;;;;;;4964305;28;20496;-76
2023/03/22 03:41:24;;;;;;;14.00;12.70;;;10.30;99.90;;;;;;4971236;28;20512;-79
2023/03/22 03:43:54;;;;;;;15.60;13.77;;;10.30;99.90;;;;;;4970973;28;20490;-78
2023/03/22 03:46:23;;;;;;;14.33;12.83;;;10.30;99.90;;;;;;4966961;28;20850;-79
2023/03/22 03:48:53;;;;;;;13.93;11.97;;;10.30;99.90;;;;;;4966169;28;20477;-78
2023/03/22 03:51:20;;;;;;;14.30;12.80;;;10.30;99.90;;;;;;4967190;28;20474;-79
2023/03/22 03:53:49;;;;;;;12.70;11.40;;;10.30;99.90;;;;;;4969315;28;20505;-76
2023/03/22 03:56:17;;;;;;;13.83;12.43;;;10.30;99.90;;;;;;4958654;28;20500;-78
2023/03/22 03:58:46;;;;;;;14.80;13.27;;;10.30;99.90;;;;;;4959459;28;20478;-79
2023/03/22 04:01:18;;;;;;;13.60;12.30;;;10.30;99.90;;;;;;4968699;28;20481;-77
2023/03/22 04:03:49;;;;;;;13.80;12.50;;;10.30;99.90;;;;;;4963355;28;20497;-78
2023/03/22 04:06:17;;;;;;;13.30;12.00;;;10.30;99.90;;;;;;4961012;28;20474;-80
2023/03/22 04:08:45;;;;;;;12.77;11.53;;;10.30;99.90;;;;;;4963135;28;20474;-78
2023/03/22 04:11:13;;;;;;;14.73;12.80;;;10.30;99.90;;;;;;4963452;28;20485;-78
2023/03/22 04:13:41;;;;;;;13.87;11.87;;;10.30;99.90;;;;;;4958308;28;20976;-78
2023/03/22 04:16:11;;;;;;;13.73;12.23;;;10.30;99.90;;;;;;4960324;28;20498;-77
2023/03/22 04:18:39;;;;;;;13.83;12.30;;;10.30;99.90;;;;;;4961800;28;20896;-79
2023/03/22 04:21:07;;;;;;;12.63;11.43;;;10.30;99.90;;;;;;4963406;28;20508;-78
2023/03/22 04:23:35;;;;;;;12.60;11.40;;;10.20;99.90;;;;;;4986305;28;20492;-80
2023/03/22 04:26:04;;;;;;;13.13;11.83;;;10.30;99.90;;;;;;4991262;28;20481;-80
2023/03/22 04:28:33;;;;;;;12.73;11.53;;;10.30;99.90;;;;;;4994951;28;20477;-77
2023/03/22 04:31:02;;;;;;;13.33;11.93;;;10.30;99.90;;;;;;4990388;28;20465;-78
2023/03/22 04:33:38;;;;;;;13.90;12.60;;;10.30;99.90;;;;;;4989783;28;20495;-78
2023/03/22 04:36:09;;;;;;;12.93;11.60;;;10.20;99.90;;;;;;4991495;28;20575;-76
2023/03/22 04:38:38;;;;;;;12.57;11.40;;;10.30;99.90;;;;;;4990844;28;20493;-79
2023/03/22 04:41:07;;;;;;;12.20;11.00;;;10.20;99.90;;;;;;4992856;28;20472;-75
2023/03/22 04:43:38;;;;;;;13.17;11.83;;;10.20;99.90;;;;;;4992232;28;20486;-76
2023/03/22 04:46:08;;;;;;;13.13;11.73;;;10.20;99.90;;;;;;4994563;28;20469;-80
2023/03/22 04:48:39;;;;;;;12.27;10.77;;;10.20;99.90;;;;;;4991072;28;20883;-76
2023/03/22 04:51:09;;;;;;;12.00;10.87;;;10.20;99.90;;;;;;4990535;28;20911;-79
2023/03/22 04:53:38;;;;;;;12.63;11.37;;;10.20;99.90;;;;;;4987706;28;20497;-78
2023/03/22 04:56:07;;;;;;;12.47;11.17;;;10.20;99.90;;;;;;4989991;28;20536;-78
2023/03/22 04:58:38;;;;;;;12.10;10.93;;;10.20;99.90;;;;;;4989563;28;20978;-77
2023/03/22 05:01:08;;;;;;;13.00;11.70;;;10.20;99.90;;;;;;4991545;28;20472;-77
2023/03/22 05:03:38;;;;;;;12.37;11.10;;;10.20;99.90;;;;;;4993405;28;20833;-78
2023/03/22 05:06:08;;;;;;;11.60;10.50;;;10.20;99.90;;;;;;4993784;28;20489;-77
2023/03/22 05:08:36;;;;;;;11.57;10.40;;;10.20;99.90;;;;;;4993513;28;20468;-80
2023/03/22 05:11:07;;;;;;;12.57;11.10;;;10.20;99.90;;;;;;4990068;28;20500;-79
2023/03/22 05:13:36;;;;;;;12.33;11.20;;;10.20;99.90;;;;;;4991853;28;20492;-76
2023/03/22 05:16:05;;;;;;;12.43;11.13;;;10.20;99.90;;;;;;4982826;28;20571;-77
2023/03/22 05:18:33;;;;;;;13.33;10.97;;;10.20;99.90;;;;;;4984462;28;20583;-77
2023/03/22 05:21:05;;;;;;;11.93;10.70;;;10.20;99.90;;;;;;4989749;28;20476;-79
2023/03/22 05:23:33;;;;;;;13.70;10.87;;;10.20;99.90;;;;;;4989893;28;20486;-79
2023/03/22 05:26:03;;;;;;;12.30;11.00;;;10.20;99.90;;;;;;4992912;28;20473;-78
2023/03/22 05:28:31;;;;;;;12.33;11.10;;;10.20;99.90;;;;;;4987912;28;20474;-79
2023/03/22 05:30:59;;;;;;;12.17;10.87;;;10.20;99.90;;;;;;4992156;28;20500;-78
2023/03/22 05:33:28;;;;;;;11.40;10.20;;;10.20;99.90;;;;;;4989104;28;20543;-78
2023/03/22 05:35:56;;;;;;;12.37;10.93;;;10.20;99.90;;;;;;4991482;28;20477;-79
2023/03/22 05:38:26;;;;;;;13.03;11.30;;;10.30;99.90;;;;;;4995803;28;20535;-77
2023/03/22 05:40:54;;;;;;;11.03;9.93;;;10.30;99.90;;;;;;4995915;28;21085;-76
2023/03/22 05:43:22;;;;;;;11.83;10.63;;;10.20;99.90;;;;;;4989387;28;20484;-77
2023/03/22 05:45:50;;;;;;;11.70;10.50;;;10.20;99.90;;;;;;4993967;28;20473;-78
2023/03/22 05:48:18;;;;;;;11.67;10.53;;;10.30;99.90;;;;;;4989599;28;20461;-78
2023/03/22 05:50:46;;;;;;;11.20;10.03;;;10.30;99.90;;;;;;4990645;28;20563;-77
2023/03/22 05:53:14;;;;;;;10.60;9.50;;;10.30;99.90;;;;;;4988762;28;20491;-78
2023/03/22 05:55:43;;;;;;;11.70;10.40;;;10.30;99.90;;;;;;4994619;28;21060;-77
2023/03/22 05:58:11;;;;;;;10.27;9.03;;;10.30;99.90;;;;;;4987122;28;20492;-78
2023/03/22 06:00:39;;;;;;;13.90;10.30;;;10.30;99.90;;;;;;4994568;28;20567;-75
2023/03/22 06:03:08;;;;;;;11.13;9.60;;;10.30;99.90;;;;;;4990790;28;20548;-77
2023/03/22 06:05:36;;;;;;;10.67;9.17;;;10.30;99.90;;;;;;4986969;28;20543;-76
2023/03/22 06:08:04;;;;;;;9.77;8.70;;;10.30;99.90;;;;;;4988412;28;20461;-78
2023/03/22 06:10:32;;;;;;;12.23;9.63;;;10.40;99.90;;;;;;4991354;28;20503;-79
2023/03/22 06:13:01;;;;;;;11.70;9.50;;;10.40;99.90;;;;;;5001655;28;20492;-80
2023/03/22 06:15:30;;;;;;;10.10;8.97;;;10.40;99.90;;;;;;5001377;28;20469;-80
2023/03/22 06:17:58;;;;;;;10.10;9.10;;;10.40;99.90;;;;;;4991051;28;20503;-78
2023/03/22 06:20:26;;;;;;;11.53;8.57;;;10.40;99.90;;;;;;5001290;28;20485;-78
2023/03/22 06:22:54;;;;;;;10.60;8.20;;;10.40;99.90;;;;;;5004961;28;20477;-78
2023/03/22 06:25:22;;;;;;;11.30;9.40;;;10.40;99.90;;;;;;4990111;28;20492;-78
2023/03/22 06:27:50;;;;;;;10.60;8.07;;;10.40;99.90;;;;;;4995505;28;20556;-78
2023/03/22 06:30:19;;;;;;;8.90;8.10;;;10.50;99.90;;;;;;4994433;28;20528;-77
2023/03/22 06:32:47;;;;;;;9.67;8.70;;;10.50;99.90;;;;;;4990682;28;20493;-78
2023/03/22 06:35:15;;;;;;;11.40;8.87;;;10.60;99.90;;;;;;4987403;28;20476;-75
2023/03/22 06:37:43;;;;;;;8.97;8.07;;;10.60;99.90;;;;;;4982768;28;20584;-73
2023/03/22 06:40:12;;;;;;;8.70;7.90;;;10.70;99.90;;;;;;4984750;28;20519;-75
2023/03/22 06:42:40;;;;;;;9.07;8.13;;;10.70;99.90;;;;;;4980261;28;20490;-77
2023/03/22 06:45:09;;;;;;;11.37;7.90;;;10.70;99.90;;;;;;4983168;28;20485;-75
2023/03/22 06:47:38;;;;;;;8.43;7.33;;;10.80;99.90;;;;;;4978952;28;21595;-76
2023/03/22 06:50:07;;;;;;;8.83;7.83;;;10.80;99.90;;;;;;4981616;28;20493;-77
2023/03/22 06:52:35;;;;;;;8.43;6.77;;;10.80;99.90;;;;;;4977027;28;21041;-75
2023/03/22 06:55:03;;;;;;;8.97;7.63;;;10.80;99.90;;;;;;4985654;28;20485;-75
2023/03/22 06:57:31;;;;;;;8.30;6.83;;;10.90;99.90;;;;;;4986113;28;20488;-75
2023/03/22 06:59:59;;;;;;;8.33;7.53;;;10.90;99.90;;;;;;4989362;28;20585;-76
2023/03/22 07:02:27;;;;;;;8.33;7.40;;;10.90;99.90;;;;;;4986574;28;20492;-75
2023/03/22 07:04:56;;;;;;;7.90;7.20;;;10.90;99.90;;;;;;4986994;28;20477;-76
2023/03/22 07:07:24;;;;;;;8.20;7.00;;;11.00;99.90;;;;;;4988293;28;20970;-74
2023/03/22 07:09:52;;;;;;;8.00;6.80;;;11.00;99.90;;;;;;4979437;28;20497;-74
2023/03/22 07:12:20;;;;;;;8.40;7.10;;;11.00;99.90;;;;;;4978389;28;20492;-75
2023/03/22 07:14:48;;;;;;;9.57;7.67;;;11.10;99.90;;;;;;4988719;28;20504;-77
2023/03/22 07:17:16;;;;;;;9.10;7.87;;;11.10;99.90;;;;;;4989748;28;20476;-75
2023/03/22 07:19:44;;;;;;;9.83;8.07;;;11.00;99.90;;;;;;4990839;28;21014;-77
2023/03/22 07:22:13;;;;;;;11.77;8.10;;;11.10;99.90;;;;;;4992101;28;21018;-76
2023/03/22 07:24:41;;;;;;;9.00;8.10;;;11.10;99.90;;;;;;4991110;28;20473;-76
2023/03/22 07:27:24;;;;;;;9.57;7.87;;;11.10;99.90;;;;;;4991812;28;21004;-77
2023/03/22 07:29:52;;;;;;;12.70;8.30;;;11.10;99.90;;;;;;4991438;28;20508;-75
2023/03/22 07:32:20;;;;;;;8.93;7.30;;;11.20;99.90;;;;;;4989888;28;20892;-77
2023/03/22 07:34:48;;;;;;;8.50;7.60;;;11.20;99.90;;;;;;4991509;28;20481;-76
2023/03/22 07:37:17;;;;;;;9.63;8.33;;;11.20;99.90;;;;;;4993518;28;20464;-77
2023/03/22 07:39:45;;;;;;;9.67;8.43;;;11.20;99.90;;;;;;4989621;28;20516;-77
2023/03/22 07:42:13;;;;;;;10.97;9.37;;;11.20;99.90;;;;;;4992637;28;20492;-77
2023/03/22 07:44:41;;;;;;;9.90;8.90;;;11.20;99.90;;;;;;4990803;28;20482;-75
2023/03/22 07:47:09;;;;;;;14.10;10.30;;;11.30;99.90;;;;;;4990685;28;20481;-77
2023/03/22 07:49:38;;;;;;;11.20;9.70;;;11.30;99.90;;;;;;4991741;28;20544;-77
2023/03/22 07:52:05;;;;;;;11.43;10.23;;;11.30;99.90;;;;;;4988448;28;20503;-75
2023/03/22 07:54:35;;;;;;;12.80;10.43;;;11.30;99.90;;;;;;4994447;28;20475;-77
2023/03/22 07:57:03;;;;;;;12.00;10.57;;;11.40;99.90;;;;;;4992516;28;20873;-76
2023/03/22 07:59:31;;;;;;;12.53;11.27;;;11.40;99.90;;;;;;4991374;28;20501;-77
2023/03/22 08:01:59;;;;;;;11.57;9.90;;;11.40;99.90;;;;;;4992937;28;20496;-77
2023/03/22 08:04:27;;;;;;;11.17;10.07;;;11.50;99.90;;;;;;4995060;28;20473;-77
2023/03/22 08:06:58;;;;;;;11.70;10.50;;;11.50;99.90;;;;;;4995693;28;20480;-77
2023/03/22 08:09:27;;;;;;;11.80;10.27;;;11.50;99.90;;;;;;4993361;28;20497;-77
2023/03/22 08:11:56;;;;;;;12.67;11.37;;;11.50;99.90;;;;;;4993961;28;20857;-77
2023/03/22 08:14:24;;;;;;;11.63;10.43;;;11.50;99.90;;;;;;4991855;28;20484;-77
2023/03/22 08:17:03;;;;;;;13.30;10.60;;;11.50;99.90;;;;;;4990224;28;20473;-77
2023/03/22 08:19:31;;;;;;;12.00;10.80;;;11.60;99.90;;;;;;4995281;28;20504;-78
2023/03/22 08:21:59;;;;;;;12.00;10.80;;;11.60;99.90;;;;;;4992355;28;20477;-76
2023/03/22 08:24:27;;;;;;;12.73;11.63;;;11.60;99.90;;;;;;4991777;28;20469;-78
2023/03/22 08:26:57;;;;;;;12.70;11.40;;;11.60;99.90;;;;;;4991747;28;20990;-78
2023/03/22 08:29:25;;;;;;;12.37;11.17;;;11.60;99.90;;;;;;4992172;28;21298;-77
2023/03/22 08:31:53;;;;;;;12.03;11.00;;;11.70;99.90;;;;;;4992961;28;20479;-78
2023/03/22 08:34:21;;;;;;;12.60;10.83;;;11.70;99.90;;;;;;4992776;28;20481;-78
2023/03/22 08:36:49;;;;;;;12.83;11.57;;;11.70;99.90;;;;;;4992719;28;20480;-77
2023/03/22 08:39:17;;;;;;;12.87;11.67;;;11.70;99.90;;;;;;4991055;28;20500;-77
2023/03/22 08:41:45;;;;;;;14.47;11.53;;;11.70;99.90;;;;;;4990412;28;20473;-78
2023/03/22 08:44:15;;;;;;;12.77;11.63;;;11.80;99.90;;;;;;4990867;28;20484;-78
2023/03/22 08:46:43;;;;;;;11.60;10.40;;;11.80;99.90;;;;;;4991892;28;20469;-77
2023/03/22 08:49:11;;;;;;;12.17;10.50;;;11.90;99.90;;;;;;4992774;28;20481;-76
2023/03/22 08:51:39;;;;;;;13.67;10.83;;;12.10;99.90;;;;;;4991682;28;20469;-77
2023/03/22 08:54:08;;;;;;;10.50;9.50;;;12.20;99.90;;;;;;4989717;28;20481;-77
2023/03/22 08:56:36;;;;;;;13.50;9.90;;;12.20;99.90;;;;;;4992485;28;20541;-77
2023/03/22 08:59:05;;;;;;;10.20;9.20;;;12.30;99.90;;;;;;4989758;28;20509;-75
2023/03/22 09:01:35;;;;;;;10.30;9.30;;;12.40;99.90;;;;;;4990284;28;20476;-76
2023/03/22 09:04:04;;;;;;;10.93;9.90;;;12.40;99.90;;;;;;4986459;28;20480;-77
2023/03/22 09:06:33;;;;;;;10.50;9.40;;;12.50;99.90;;;;;;4989342;28;20551;-77
2023/03/22 09:09:01;;;;;;;10.10;8.70;;;12.60;99.90;;;;;;4990106;28;20493;-76
2023/03/22 09:11:29;;;;;;;9.97;9.00;;;12.70;99.90;;;;;;4993195;28;21058;-74
2023/03/22 09:13:57;;;;;;;12.47;9.47;;;12.80;99.90;;;;;;4989549;28;20492;-77
2023/03/22 09:16:25;;;;;;;10.50;9.40;;;12.90;99.90;;;;;;4990254;28;20465;-76
2023/03/22 09:18:54;;;;;;;9.63;8.60;;;12.90;99.90;;;;;;4991506;28;20509;-77
2023/03/22 09:21:22;;;;;;;8.80;8.00;;;12.90;99.90;;;;;;4994444;28;20475;-75
2023/03/22 09:23:50;;;;;;;8.50;7.70;;;12.90;99.90;;;;;;4992775;28;20504;-74
2023/03/22 09:26:18;;;;;;;8.63;7.37;;;13.00;99.90;;;;;;4992836;28;20859;-76
2023/03/22 09:28:46;;;;;;;9.33;8.30;;;13.00;99.90;;;;;;4990658;28;20476;-76
2023/03/22 09:31:14;;;;;;;8.70;7.80;;;13.10;99.90;;;;;;4990831;28;20469;-76
2023/03/22 09:33:45;;;;;;;8.50;7.70;;;13.10;99.90;;;;;;4992352;28;21234;-76
2023/03/22 09:36:15;;;;;;;10.60;7.53;;;13.10;99.90;;;;;;4992342;28;20472;-76
2023/03/22 09:38:44;;;;;;;10.77;7.47;;;13.10;99.90;;;;;;4993558;28;20476;-77
2023/03/22 09:41:16;;;;;;;8.50;7.37;;;13.20;99.90;;;;;;4991974;28;20486;-76
2023/03/22 09:43:48;;;;;;;7.93;7.13;;;13.20;99.90;;;;;;4987440;28;20485;-74
2023/03/22 09:46:24;;;;;;;6.87;6.17;;;13.30;99.90;;;;;;4989802;28;20481;-77
2023/03/22 09:48:53;;;;;;;10.10;7.00;;;13.30;99.90;;;;;;4991242;28;20583;-75
2023/03/22 09:51:30;;;;;;;7.57;6.33;;;13.30;99.90;;;;;;4992116;28;20473;-76
2023/03/22 09:53:59;;;;;;;7.30;5.77;;;13.40;99.90;;;;;;4985080;28;20583;-76
2023/03/22 09:56:31;;;;;;;10.30;6.77;;;13.30;99.90;;;;;;4987146;28;20473;-76
2023/03/22 09:59:08;;;;;;;7.67;6.00;;;13.20;99.90;;;;;;4991469;28;20516;-76
2023/03/22 10:01:45;;;;;;;6.13;5.53;;;13.20;99.90;;;;;;4988884;28;20994;-74
2023/03/22 10:04:36;;;;;;;6.77;6.07;;;13.20;99.90;;;;;;4989916;28;20500;-76
2023/03/22 10:07:13;;;;;;;7.10;6.40;;;13.30;99.90;;;;;;4983456;28;20485;-74
2023/03/22 10:09:53;;;;;;;5.90;5.23;;;13.30;99.90;;;;;;4989180;28;20870;-76
2023/03/22 10:12:26;;;;;;;5.80;5.30;;;13.40;99.90;;;;;;4987948;28;20503;-76
2023/03/22 10:15:03;;;;;;;7.20;5.37;;;13.40;99.90;;;;;;4989721;28;20469;-75
2023/03/22 10:17:32;;;;;;;5.83;5.33;;;13.50;99.90;;;;;;4989509;28;20843;-76
2023/03/22 10:20:06;;;;;;;6.43;4.93;;;13.50;99.90;;;;;;4989923;28;20507;-76
2023/03/22 10:22:41;;;;;;;7.23;5.53;;;13.50;99.90;;;;;;4987820;28;20496;-76
2023/03/22 10:25:12;;;;;;;7.40;4.73;;;13.50;99.90;;;;;;4989165;28;20479;-76
2023/03/22 10:27:40;;;;;;;6.43;4.73;;;13.50;99.90;;;;;;4989304;28;20461;-75
2023/03/22 10:30:16;;;;;;;6.73;4.83;;;13.50;99.90;;;;;;4989279;28;20481;-74
2023/03/22 10:32:51;;;;;;;7.43;4.73;;;13.40;99.90;;;;;;4987905;28;20883;-76
2023/03/22 10:35:25;;;;;;;5.60;4.23;;;13.50;99.90;;;;;;4989567;28;22659;-75
2023/03/22 10:37:57;;;;;;;6.83;4.37;;;13.50;99.90;;;;;;4991448;28;20477;-76
2023/03/22 10:40:28;;;;;;;5.33;3.90;;;13.50;99.90;;;;;;4989802;28;20523;-75
2023/03/22 10:42:59;;;;;;;4.57;4.13;;;13.50;99.90;;;;;;4983736;28;20500;-76
2023/03/22 10:45:28;;;;;;;7.50;4.40;;;13.60;99.90;;;;;;4984502;28;20477;-75
2023/03/22 10:48:00;;;;;;;6.17;3.70;;;13.60;99.90;;;;;;4989572;28;20473;-75
2023/03/22 10:50:33;;;;;;;6.30;3.50;;;13.70;99.90;;;;;;4987560;28;20501;-75
2023/03/22 10:53:06;;;;;;;11.23;3.50;;;13.80;99.90;;;;;;4986590;28;20485;-75
2023/03/22 10:55:39;;;;;;;4.90;3.20;;;13.90;99.90;;;;;;4987207;28;20990;-74
2023/03/22 10:58:13;;;;;;;7.83;3.90;;;13.90;99.90;;;;;;4989028;28;20564;-75
2023/03/22 11:00:45;;;;;;;4.63;3.20;;;14.00;99.90;;;;;;4987212;28;21255;-76
2023/03/22 11:03:27;;;;;;;6.37;4.00;;;14.00;99.90;;;;;;4973525;28;20481;-76
2023/03/22 11:06:05;;;;;;;3.50;2.90;;;14.00;99.90;;;;;;4968980;28;20847;-76
2023/03/22 11:08:42;;;;;;;5.40;4.30;;;14.00;99.90;;;;;;4968157;28;20476;-76
2023/03/22 11:11:17;;;;;;;4.13;3.57;;;14.00;99.90;;;;;;4968257;28;20501;-76
2023/03/22 11:13:52;;;;;;;4.67;4.17;;;14.00;99.90;;;;;;4966821;28;20493;-76
2023/03/22 11:16:21;;;;;;;6.27;3.97;;;14.00;99.90;;;;;;4965958;28;21006;-75
2023/03/22 11:18:49;;;;;;;7.43;4.17;;;14.10;99.90;;;;;;4969914;28;20510;-76
2023/03/22 11:21:19;;;;;;;4.47;4.10;;;14.10;99.90;;;;;;4967004;28;20493;-77
2023/03/22 11:23:57;;;;;;;5.40;3.87;;;14.10;99.90;;;;;;4964716;28;21290;-76
2023/03/22 11:26:29;;;;;;;4.87;4.43;;;14.20;99.90;;;;;;4967766;28;20492;-76
2023/03/22 11:29:11;;;;;;;6.13;4.77;;;14.20;99.90;;;;;;4969178;28;20477;-76
2023/03/22 11:31:51;;;;;;;6.40;4.70;;;14.20;99.90;;;;;;4966230;28;20482;-77
2023/03/22 11:34:25;;;;;;;6.20;3.80;;;14.20;99.90;;;;;;4973853;28;20477;-76
2023/03/22 11:36:55;;;;;;;5.73;4.10;;;14.30;99.90;;;;;;4974617;28;20921;-77
2023/03/22 11:39:27;;;;;;;6.33;3.87;;;14.20;99.90;;;;;;4970986;28;20584;-77
2023/03/22 11:42:00;;;;;;;4.80;4.40;;;14.20;99.90;;;;;;4969590;28;20561;-77
2023/03/22 11:44:34;;;;;;;6.13;4.10;;;14.20;99.90;;;;;;4968780;28;21539;-75
2023/03/22 11:47:04;;;;;;;4.63;4.20;;;14.10;99.90;;;;;;4965727;28;20500;-77
2023/03/22 11:49:40;;;;;;;5.33;4.00;;;14.10;99.90;;;;;;4969520;28;20529;-77
2023/03/22 11:52:11;;;;;;;5.93;4.70;;;14.10;99.90;;;;;;4967545;28;20572;-75
2023/03/22 11:54:44;;;;;;;5.37;4.10;;;14.00;99.90;;;;;;4971107;28;20477;-76
2023/03/22 11:57:17;;;;;;;4.73;4.37;;;14.00;99.90;;;;;;4970317;28;20478;-77
2023/03/22 11:59:49;;;;;;;4.97;4.53;;;14.10;99.90;;;;;;4970229;28;20516;-77
2023/03/22 12:02:23;;;;;;;6.87;4.90;;;14.10;99.90;;;;;;4968852;28;21040;-76
2023/03/22 12:04:59;;;;;;;5.03;4.53;;;14.10;99.90;;;;;;4970786;28;20477;-77
2023/03/22 12:07:30;;;;;;;4.40;4.00;;;14.10;99.90;;;;;;4972130;28;20501;-77
2023/03/22 12:10:05;;;;;;;7.10;4.43;;;14.10;99.90;;;;;;4966903;28;21015;-77
2023/03/22 12:12:39;;;;;;;5.60;4.93;;;14.10;99.90;;;;;;4965145;28;20482;-75
2023/03/22 12:15:15;;;;;;;5.20;4.70;;;14.20;99.90;;;;;;4958846;28;20488;-76
2023/03/22 12:17:47;;;;;;;5.00;4.50;;;14.20;99.90;;;;;;4956788;28;20482;-74
2023/03/22 12:20:21;;;;;;;6.00;5.50;;;14.20;99.90;;;;;;4968804;28;21014;-75
2023/03/22 12:22:53;;;;;;;5.50;5.07;;;14.10;99.90;;;;;;4966945;28;20485;-75
2023/03/22 12:25:27;;;;;;;6.40;5.80;;;14.20;99.90;;;;;;4962548;28;20473;-76
2023/03/22 12:27:58;;;;;;;5.20;4.70;;;14.20;99.90;;;;;;4956216;28;20478;-76
2023/03/22 12:30:28;;;;;;;6.00;5.40;;;14.20;99.90;;;;;;4964858;28;20544;-76
2023/03/22 12:33:01;;;;;;;6.57;5.53;;;14.20;99.90;;;;;;4964241;28;20510;-76
2023/03/22 12:35:31;;;;;;;5.97;5.47;;;14.10;99.90;;;;;;4969570;28;20470;-76
2023/03/22 12:38:06;;;;;;;6.73;5.80;;;14.00;99.90;;;;;;4970520;28;20993;-77
2023/03/22 12:40:38;;;;;;;6.17;5.70;;;14.00;99.90;;;;;;4963314;28;20494;-76
2023/03/22 12:43:13;;;;;;;6.27;5.40;;;13.90;99.90;;;;;;4967155;28;20489;-76
2023/03/22 12:45:46;;;;;;;6.73;6.03;;;13.90;99.90;;;;;;4971004;28;20496;-76
2023/03/22 12:48:18;;;;;;;6.37;5.77;;;13.90;99.90;;;;;;4970608;28;20473;-76
2023/03/22 12:50:51;;;;;;;6.80;6.00;;;13.90;99.90;;;;;;4973849;28;20481;-76
2023/03/22 12:53:21;;;;;;;6.60;6.00;;;13.90;99.90;;;;;;4981346;28;20605;-77
2023/03/22 12:55:51;;;;;;;6.00;5.43;;;13.90;99.90;;;;;;4979138;28;20477;-75